createdAt,value
2018-02-24T00:01:44.523Z,59.15
2018-02-24T00:04:14.375Z,60.31
2018-02-24T00:06:44.477Z,59.94
2018-02-24T00:09:14.535Z,59.73
2018-02-24T00:11:44.494Z,59.97
2018-02-24T00:14:14.607Z,59.82
2018-02-24T00:16:44.179Z,60.54
2018-02-24T00:19:13.854Z,59.21
2018-02-24T00:21:43.684Z,59.06
2018-02-24T00:24:13.556Z,59.85
2018-02-24T00:26:43.512Z,60.36
2018-02-24T00:29:13.649Z,59.44
2018-02-24T00:31:43.387Z,59.33
2018-02-24T00:34:13.462Z,60.13
2018-02-24T00:36:42.751Z,60.36
2018-02-24T00:39:12.569Z,59.17
2018-02-24T00:41:41.738Z,59.58
2018-02-24T00:44:10.740Z,59.52
2018-02-24T00:46:39.755Z,59.29
2018-02-24T00:49:08.754Z,59.38
2018-02-24T00:51:37.753Z,59.11
2018-02-24T00:54:06.743Z,59.94
2018-02-24T00:56:35.726Z,60.11
2018-02-24T00:59:04.750Z,59.83
2018-02-24T01:01:33.766Z,59.22
2018-02-24T01:04:02.733Z,59.61
2018-02-24T01:06:31.725Z,59.67
2018-02-24T01:09:00.761Z,59.73
2018-02-24T01:11:29.738Z,59.80
2018-02-24T01:13:58.765Z,59.39
2018-02-24T01:16:28.860Z,58.69
2018-02-24T01:18:57.843Z,59.52
2018-02-24T01:21:26.820Z,59.40
2018-02-24T01:23:55.730Z,59.37
2018-02-24T01:26:27.687Z,59.52
2018-02-24T01:28:56.768Z,59.93
2018-02-24T01:31:25.783Z,59.21
2018-02-24T01:33:54.768Z,59.34
2018-02-24T01:36:23.751Z,59.93
2018-02-24T01:38:52.764Z,59.73
2018-02-24T01:41:21.775Z,59.99
2018-02-24T01:43:53.760Z,59.89
2018-02-24T01:46:22.798Z,59.77
2018-02-24T01:48:51.779Z,59.76
2018-02-24T01:51:20.755Z,59.66
2018-02-24T01:53:49.789Z,59.26
2018-02-24T01:56:18.834Z,59.77
2018-02-24T01:58:47.884Z,59.67
2018-02-24T02:01:16.765Z,59.53
2018-02-24T02:03:45.787Z,59.78
2018-02-24T02:06:14.760Z,59.91
2018-02-24T02:08:43.783Z,59.65
2018-02-24T02:11:12.762Z,60.14
2018-02-24T02:13:41.787Z,59.96
2018-02-24T02:16:10.770Z,59.79
2018-02-24T02:18:39.766Z,59.84
2018-02-24T02:21:08.802Z,60.34
2018-02-24T02:23:38.049Z,59.69
2018-02-24T02:26:07.236Z,60.43
2018-02-24T02:28:36.694Z,59.98
2018-02-24T02:31:08.790Z,59.69
2018-02-24T02:33:37.792Z,60.11
2018-02-24T02:36:06.776Z,60.21
2018-02-24T02:38:35.785Z,60.39
2018-02-24T02:41:04.764Z,60.26
2018-02-24T02:43:33.754Z,60.43
2018-02-24T02:46:02.771Z,59.79
2018-02-24T02:48:31.754Z,60.38
2018-02-24T02:51:02.765Z,60.29
2018-02-24T02:53:31.747Z,60.26
2018-02-24T02:56:00.772Z,60.62
2018-02-24T02:58:32.774Z,60.24
2018-02-24T03:01:01.796Z,60.08
2018-02-24T03:03:30.794Z,60.05
2018-02-24T03:05:59.783Z,60.00
2018-02-24T03:08:28.813Z,60.40
2018-02-24T03:10:57.798Z,60.19
2018-02-24T03:13:26.811Z,60.26
2018-02-24T03:15:56.804Z,59.87
2018-02-24T03:18:25.851Z,60.32
2018-02-24T03:20:54.894Z,60.33
2018-02-24T03:23:23.877Z,60.04
2018-02-24T03:25:52.837Z,60.07
2018-02-24T03:28:21.848Z,59.98
2018-02-24T03:30:50.777Z,60.24
2018-02-24T03:33:19.776Z,60.42
2018-02-24T03:35:48.774Z,60.32
2018-02-24T03:38:17.859Z,59.67
2018-02-24T03:40:46.908Z,59.95
2018-02-24T03:43:15.855Z,60.07
2018-02-24T03:45:56.802Z,59.94
2018-02-24T03:48:25.870Z,60.22
2018-02-24T03:50:54.782Z,60.29
2018-02-24T03:53:23.826Z,60.09
2018-02-24T03:55:53.463Z,59.89
2018-02-24T03:58:22.882Z,59.86
2018-02-24T04:00:51.789Z,60.13
2018-02-24T04:03:20.786Z,60.20
2018-02-24T04:05:51.753Z,59.90
2018-02-24T04:08:20.751Z,60.08
2018-02-24T04:10:49.761Z,60.30
2018-02-24T04:13:18.877Z,60.29
2018-02-24T04:15:47.816Z,60.47
2018-02-24T04:18:16.796Z,60.27
2018-02-24T04:20:45.798Z,60.03
2018-02-24T04:23:14.762Z,60.39
2018-02-24T04:25:43.748Z,60.43
2018-02-24T04:28:12.773Z,60.27
2018-02-24T04:30:41.791Z,60.56
2018-02-24T04:33:10.814Z,60.33
2018-02-24T04:35:39.825Z,60.41
2018-02-24T04:38:11.703Z,60.43
2018-02-24T04:40:41.241Z,60.49
2018-02-24T04:43:10.715Z,60.43
2018-02-24T04:45:39.809Z,60.69
2018-02-24T04:48:08.840Z,60.67
2018-02-24T04:50:37.806Z,60.91
2018-02-24T04:53:06.805Z,60.36
2018-02-24T04:55:35.803Z,60.84
2018-02-24T04:58:04.804Z,60.39
2018-02-24T05:00:33.819Z,60.66
2018-02-24T05:03:02.897Z,60.51
2018-02-24T05:05:31.859Z,60.63
2018-02-24T05:08:00.809Z,60.69
2018-02-24T05:10:29.788Z,60.93
2018-02-24T05:12:58.774Z,60.92
2018-02-24T05:15:27.769Z,60.89
2018-02-24T05:17:56.788Z,60.91
2018-02-24T05:20:25.736Z,60.72
2018-02-24T05:22:56.749Z,60.68
2018-02-24T05:25:25.750Z,60.75
2018-02-24T05:27:54.802Z,60.88
2018-02-24T05:30:25.824Z,60.99
2018-02-24T05:32:54.788Z,60.98
2018-02-24T05:35:23.764Z,60.92
2018-02-24T05:37:52.765Z,60.93
2018-02-24T05:40:21.776Z,61.09
2018-02-24T05:42:50.763Z,61.02
2018-02-24T05:45:19.757Z,61.10
2018-02-24T05:47:51.721Z,61.09
2018-02-24T05:50:20.758Z,61.17
2018-02-24T05:52:49.745Z,61.17
2018-02-24T05:55:18.763Z,61.09
2018-02-24T05:57:47.784Z,60.83
2018-02-24T06:00:16.772Z,61.05
2018-02-24T06:02:45.784Z,61.01
2018-02-24T06:05:14.762Z,60.88
2018-02-24T06:07:43.781Z,60.99
2018-02-24T06:10:12.783Z,60.92
2018-02-24T06:12:41.778Z,60.79
2018-02-24T06:15:10.783Z,60.99
2018-02-24T06:17:39.842Z,60.99
2018-02-24T06:20:08.796Z,60.72
2018-02-24T06:22:37.835Z,61.07
2018-02-24T06:25:06.783Z,60.79
2018-02-24T06:27:35.788Z,60.89
2018-02-24T06:30:04.803Z,61.31
2018-02-24T06:32:33.776Z,61.21
2018-02-24T06:35:02.753Z,61.15
2018-02-24T06:37:31.806Z,60.98
2018-02-24T06:40:02.065Z,61.19
2018-02-24T06:42:31.249Z,61.15
2018-02-24T06:45:00.688Z,61.17
2018-02-24T06:47:29.771Z,61.16
2018-02-24T06:49:58.775Z,61.14
2018-02-24T06:52:27.796Z,60.92
2018-02-24T06:54:56.767Z,60.61
2018-02-24T06:57:25.757Z,61.02
2018-02-24T06:59:54.774Z,60.96
2018-02-24T07:02:23.741Z,61.16
2018-02-24T07:04:52.812Z,61.23
2018-02-24T07:07:21.809Z,61.06
2018-02-24T07:09:50.835Z,61.06
2018-02-24T07:12:19.800Z,61.13
2018-02-24T07:14:48.774Z,61.26
2018-02-24T07:17:17.785Z,61.42
2018-02-24T07:19:46.752Z,61.31
2018-02-24T07:22:15.850Z,61.26
2018-02-24T07:24:44.863Z,61.38
2018-02-24T07:27:14.089Z,61.24
2018-02-24T07:29:43.664Z,61.28
2018-02-24T07:32:12.779Z,61.26
2018-02-24T07:34:43.986Z,61.57
2018-02-24T07:37:12.926Z,61.53
2018-02-24T07:39:41.784Z,61.60
2018-02-24T07:42:10.784Z,61.51
2018-02-24T07:44:39.813Z,61.82
2018-02-24T07:47:08.903Z,61.71
2018-02-24T07:49:38.075Z,61.74
2018-02-24T07:52:07.755Z,61.76
2018-02-24T07:54:36.770Z,61.90
2018-02-24T07:57:05.764Z,61.75
2018-02-24T07:59:34.768Z,61.91
2018-02-24T08:02:03.794Z,61.89
2018-02-24T08:04:33.055Z,61.78
2018-02-24T08:07:02.228Z,62.01
2018-02-24T08:09:31.732Z,62.04
2018-02-24T08:12:05.691Z,62.11
2018-02-24T08:14:34.775Z,61.86
2018-02-24T08:17:03.779Z,61.60
2018-02-24T08:19:32.837Z,62.03
2018-02-24T08:22:01.801Z,61.97
2018-02-24T08:24:30.817Z,62.22
2018-02-24T08:27:00.403Z,61.97
2018-02-24T08:29:29.775Z,61.96
2018-02-24T08:31:58.877Z,61.75
2018-02-24T08:34:30.674Z,62.01
2018-02-24T08:36:59.776Z,62.04
2018-02-24T08:39:28.849Z,61.79
2018-02-24T08:41:57.804Z,61.98
2018-02-24T08:44:26.926Z,62.07
2018-02-24T08:46:56.042Z,62.04
2018-02-24T08:49:25.211Z,61.85
2018-02-24T08:51:54.703Z,60.88
2018-02-24T08:54:23.739Z,61.74
2018-02-24T08:56:52.753Z,61.66
2018-02-24T08:59:21.837Z,61.37
2018-02-24T09:01:51.324Z,60.84
2018-02-24T09:04:20.856Z,61.26
2018-02-24T09:06:50.246Z,60.76
2018-02-24T09:09:19.748Z,60.75
2018-02-24T09:11:48.872Z,60.83
2018-02-24T09:14:17.818Z,56.82
2018-02-24T09:16:46.780Z,51.74
2018-02-24T09:19:15.719Z,48.35
2018-02-24T09:21:44.747Z,52.83
2018-02-24T09:24:13.712Z,48.50
2018-02-24T09:26:42.769Z,50.51
2018-02-24T09:29:12.112Z,49.85
2018-02-24T09:31:41.610Z,52.49
2018-02-24T09:34:10.826Z,54.54
2018-02-24T09:36:39.758Z,54.04
2018-02-24T09:39:08.737Z,56.02
2018-02-24T09:41:37.859Z,55.65
2018-02-24T09:44:07.548Z,56.73
2018-02-24T09:46:38.292Z,57.37
2018-02-24T09:49:07.763Z,56.95
2018-02-24T09:51:37.073Z,57.42
2018-02-24T09:54:06.394Z,57.81
2018-02-24T09:56:35.770Z,58.74
2018-02-24T09:59:04.986Z,58.76
2018-02-24T10:01:34.219Z,59.52
2018-02-24T10:04:06.797Z,59.75
2018-02-24T10:06:35.872Z,60.08
2018-02-24T10:09:05.100Z,60.06
2018-02-24T10:11:34.531Z,60.43
2018-02-24T10:14:03.779Z,60.42
2018-02-24T10:16:36.023Z,59.98
2018-02-24T10:19:07.818Z,60.23
2018-02-24T10:21:37.893Z,60.09
2018-02-24T10:24:07.857Z,60.63
2018-02-24T10:29:36.772Z,60.71
2018-02-24T10:32:07.816Z,60.78
2018-02-24T10:34:36.887Z,60.43
2018-02-24T10:37:06.110Z,60.52
2018-02-24T10:39:35.716Z,60.49
2018-02-24T10:42:04.871Z,60.09
2018-02-24T10:44:33.994Z,59.81
2018-02-24T10:47:02.900Z,60.14
2018-02-24T10:49:32.400Z,59.99
2018-02-24T10:52:01.739Z,60.15
2018-02-24T10:54:31.082Z,59.92
2018-02-24T10:57:00.914Z,59.95
2018-02-24T11:09:24.886Z,59.92
2018-02-24T11:11:54.354Z,60.21
2018-02-24T11:14:24.887Z,59.94
2018-02-24T11:16:54.411Z,60.39
2018-02-24T11:19:23.810Z,60.54
2018-02-24T11:21:53.558Z,60.58
2018-02-24T11:24:24.277Z,60.59
2018-02-24T11:26:53.842Z,60.67
2018-02-24T11:29:23.903Z,60.69
2018-02-24T11:31:53.817Z,60.28
2018-02-24T11:34:23.078Z,60.73
2018-02-24T11:36:52.866Z,61.08
2018-02-24T11:39:27.764Z,60.99
2018-02-24T11:41:57.088Z,61.08
2018-02-24T11:44:26.245Z,61.28
2018-02-24T11:46:55.930Z,61.42
2018-02-24T11:49:26.831Z,61.68
2018-02-24T11:51:56.250Z,61.30
2018-02-24T11:54:25.782Z,61.92
2018-02-24T11:56:55.222Z,61.46
2018-02-24T11:59:24.827Z,61.79
2018-02-24T12:01:54.124Z,61.79
2018-02-24T12:04:23.674Z,61.76
2018-02-24T12:06:52.819Z,62.05
2018-02-24T12:09:21.889Z,62.08
2018-02-24T12:11:51.358Z,62.01
2018-02-24T12:14:20.802Z,61.93
2018-02-24T12:16:49.892Z,62.10
2018-02-24T12:19:19.330Z,61.88
2018-02-24T12:21:48.713Z,61.89
2018-02-24T12:24:18.044Z,61.91
2018-02-24T12:26:47.794Z,61.61
2018-02-24T12:29:16.872Z,62.11
2018-02-24T12:31:46.590Z,62.03
2018-02-24T12:34:15.907Z,61.78
2018-02-24T12:36:45.420Z,61.67
2018-02-24T12:39:14.772Z,61.58
2018-02-24T12:41:44.300Z,61.88
2018-02-24T12:44:13.779Z,61.71
2018-02-24T12:46:43.376Z,61.86
2018-02-24T12:49:12.826Z,61.56
2018-02-24T12:51:42.048Z,61.94
2018-02-24T12:54:11.725Z,61.75
2018-02-24T12:56:40.845Z,61.90
2018-02-24T12:59:10.065Z,61.73
2018-02-24T13:01:39.698Z,61.78
2018-02-24T13:04:10.730Z,61.93
2018-02-24T13:06:39.762Z,62.26
2018-02-24T13:09:08.852Z,62.14
2018-02-24T13:11:38.102Z,62.00
2018-02-24T13:14:07.771Z,62.31
2018-02-24T13:16:37.064Z,62.13
2018-02-24T13:19:06.724Z,61.94
2018-02-24T13:21:36.107Z,61.84
2018-02-24T13:24:05.925Z,62.21
2018-02-24T13:26:35.133Z,62.25
2018-02-24T13:29:04.687Z,62.20
2018-02-24T13:31:33.766Z,62.22
2018-02-24T13:34:03.292Z,62.33
2018-02-24T13:36:32.857Z,62.28
2018-02-24T13:39:02.036Z,62.25
2018-02-24T13:41:31.245Z,62.24
2018-02-24T13:44:00.822Z,62.42
2018-02-24T13:46:30.241Z,62.47
2018-02-24T13:48:59.877Z,62.56
2018-02-24T13:51:29.097Z,62.87
2018-02-24T13:53:58.864Z,62.77
2018-02-24T13:56:28.095Z,62.94
2018-02-24T13:58:57.429Z,63.03
2018-02-24T14:01:26.798Z,63.08
2018-02-24T14:03:56.070Z,63.07
2018-02-24T14:06:25.827Z,63.07
2018-02-24T14:08:55.090Z,63.08
2018-02-24T14:11:24.656Z,63.25
2018-02-24T14:13:53.757Z,63.38
2018-02-24T14:16:23.080Z,63.44
2018-02-24T14:18:52.737Z,63.41
2018-02-24T14:21:22.286Z,63.48
2018-02-24T14:23:51.763Z,63.43
2018-02-24T14:26:21.302Z,63.36
2018-02-24T14:28:50.748Z,63.37
2018-02-24T14:31:19.903Z,63.27
2018-02-24T14:33:48.987Z,63.19
2018-02-24T14:36:18.605Z,63.26
2018-02-24T14:38:47.762Z,63.43
2018-02-24T14:41:16.891Z,63.64
2018-02-24T14:43:46.212Z,64.00
2018-02-24T14:46:15.861Z,62.80
2018-02-24T14:48:45.408Z,63.29
2018-02-24T14:51:14.713Z,62.99
2018-02-24T14:53:43.857Z,63.54
2018-02-24T14:56:14.815Z,63.00
2018-02-24T14:58:44.145Z,63.55
2018-02-24T15:01:13.938Z,63.47
2018-02-24T15:03:43.287Z,62.83
2018-02-24T15:06:12.894Z,63.18
2018-02-24T15:08:42.226Z,62.97
2018-02-24T15:11:11.815Z,63.01
2018-02-24T15:13:41.175Z,63.05
2018-02-24T15:19:08.381Z,62.60
2018-02-24T15:21:38.883Z,62.56
2018-02-24T15:24:08.673Z,61.66
2018-02-24T15:26:38.484Z,61.68
2018-02-24T15:38:48.942Z,61.81
2018-02-24T15:41:19.409Z,61.44
2018-02-24T15:43:49.571Z,61.40
2018-02-24T15:54:43.892Z,62.55
2018-02-24T15:57:13.674Z,62.24
2018-02-24T15:59:43.725Z,62.41
2018-02-24T16:02:13.503Z,62.61
2018-02-24T16:04:43.567Z,63.10
2018-02-24T16:07:12.786Z,62.30
2018-02-24T16:09:41.873Z,62.11
2018-02-24T16:12:11.233Z,62.47
2018-02-24T16:14:41.790Z,62.96
2018-02-24T16:17:10.888Z,63.75
2018-02-24T16:19:40.600Z,64.51
2018-02-24T16:22:10.330Z,64.85
2018-02-24T16:24:39.948Z,63.07
2018-02-24T16:27:09.574Z,62.57
2018-02-24T16:29:38.827Z,62.83
2018-02-24T16:32:08.329Z,62.95
2018-02-24T16:34:38.235Z,64.25
2018-02-24T16:37:07.797Z,63.13
2018-02-24T16:39:37.225Z,62.92
2018-02-24T16:42:06.800Z,63.73
2018-02-24T16:44:36.416Z,63.01
2018-02-24T16:47:05.916Z,63.09
2018-02-24T16:49:35.099Z,63.19
2018-02-24T16:52:04.759Z,62.59
2018-02-24T16:54:34.125Z,62.64
2018-02-24T16:57:03.798Z,63.55
2018-02-24T16:59:33.235Z,63.00
2018-02-24T17:02:02.952Z,66.25
2018-02-24T17:04:32.090Z,63.59
2018-02-24T17:07:01.743Z,65.59
2018-02-24T17:09:30.886Z,65.03
2018-02-24T17:12:00.336Z,63.24
2018-02-24T17:14:29.835Z,63.97
2018-02-24T17:16:59.274Z,63.26
2018-02-24T17:19:28.873Z,63.63
2018-02-24T17:21:58.247Z,65.15
2018-02-24T17:24:27.682Z,65.33
2018-02-24T17:26:57.129Z,63.98
2018-02-24T17:29:26.672Z,65.04
2018-02-24T17:31:55.786Z,65.07
2018-02-24T17:34:25.322Z,63.84
2018-02-24T17:36:54.771Z,63.50
2018-02-24T17:39:24.098Z,64.89
2018-02-24T17:41:53.418Z,65.26
2018-02-24T17:44:22.960Z,66.09
2018-02-24T17:46:52.177Z,64.23
2018-02-24T17:49:21.761Z,63.61
2018-02-24T18:01:41.082Z,60.97
2018-02-24T18:04:10.897Z,61.16
2018-02-24T18:06:40.442Z,61.26
2018-02-24T18:09:09.767Z,61.87
2018-02-24T18:11:39.141Z,60.59
2018-02-24T18:14:08.741Z,61.43
2018-02-24T18:16:37.902Z,60.84
2018-02-24T18:19:07.058Z,60.92
2018-02-24T18:21:36.230Z,61.72
2018-02-24T18:24:05.805Z,61.24
2018-02-24T18:26:35.250Z,61.00
2018-02-24T18:29:04.754Z,61.22
2018-02-24T18:31:33.862Z,61.07
2018-02-24T18:34:02.863Z,60.45
2018-02-24T18:46:11.734Z,60.35
2018-02-24T19:05:32.398Z,61.28
2018-02-24T19:08:02.427Z,60.64
2018-02-24T19:10:31.855Z,60.42
2018-02-24T19:13:01.681Z,59.49
2018-02-24T19:15:31.549Z,60.28
2018-02-24T19:18:01.669Z,60.01
2018-02-24T19:20:31.689Z,60.25
2018-02-24T19:23:01.248Z,59.61
2018-02-24T19:25:30.842Z,59.65
2018-02-24T19:28:00.418Z,59.58
2018-02-24T19:38:53.494Z,59.52
2018-02-24T19:41:23.519Z,59.50
2018-02-24T19:43:54.786Z,60.29
2018-02-24T19:58:20.477Z,59.48
2018-02-24T20:00:49.754Z,59.23
2018-02-24T20:03:19.048Z,59.46
2018-02-24T20:05:48.197Z,58.78
2018-02-24T20:08:19.929Z,59.59
2018-02-24T20:10:48.849Z,58.44
2018-02-24T20:13:17.742Z,58.87
2018-02-24T20:15:46.759Z,58.78
2018-02-24T20:18:15.748Z,59.28
2018-02-24T20:20:44.841Z,59.47
2018-02-24T20:23:13.842Z,59.19
2018-02-24T20:25:42.843Z,59.35
2018-02-24T20:28:12.374Z,59.74
2018-02-24T20:30:41.775Z,60.10
2018-02-24T20:33:10.762Z,59.46
2018-02-24T20:35:39.772Z,59.61
2018-02-24T20:38:08.760Z,59.30
2018-02-24T20:40:37.914Z,58.88
2018-02-24T20:43:07.069Z,59.34
2018-02-24T20:45:36.253Z,60.14
2018-02-24T20:48:05.700Z,58.23
2018-02-24T20:50:34.763Z,59.60
2018-02-24T20:53:03.770Z,59.71
2018-02-24T20:55:32.745Z,59.30
2018-02-24T20:58:01.745Z,59.24
2018-02-24T21:00:30.758Z,59.42
2018-02-24T21:02:59.795Z,59.04
2018-02-24T21:05:28.788Z,59.74
2018-02-24T21:07:57.743Z,59.13
2018-02-24T21:10:26.785Z,58.72
2018-02-24T21:12:55.771Z,59.33
2018-02-24T21:15:24.734Z,58.42
2018-02-24T21:17:53.754Z,58.71
2018-02-24T21:20:23.856Z,59.16
2018-02-24T21:22:53.041Z,58.80
2018-02-24T21:25:22.216Z,57.71
2018-02-24T21:27:51.737Z,57.51
2018-02-24T21:30:20.836Z,58.97
2018-02-24T21:32:49.833Z,58.56
2018-02-24T21:35:18.755Z,58.65
2018-02-24T21:37:47.862Z,58.16
2018-02-24T21:40:17.177Z,58.30
2018-02-24T21:42:46.641Z,59.39
2018-02-24T21:45:15.757Z,58.68
2018-02-24T21:47:44.738Z,59.37
2018-02-24T21:50:13.743Z,58.78
2018-02-24T21:52:42.739Z,59.08
2018-02-24T21:55:11.732Z,59.27
2018-02-24T21:57:40.793Z,58.78
2018-02-24T22:00:09.770Z,58.55
2018-02-24T22:02:38.754Z,59.64
2018-02-24T22:05:07.746Z,58.37
2018-02-24T22:07:36.790Z,58.40
2018-02-24T22:10:05.742Z,59.94
2018-02-24T22:12:34.724Z,59.26
2018-02-24T22:15:03.756Z,59.11
2018-02-24T22:17:32.764Z,58.23
2018-02-24T22:20:01.746Z,59.16
2018-02-24T22:22:30.857Z,59.06
2018-02-24T22:24:59.761Z,58.70
2018-02-24T22:27:28.775Z,58.94
2018-02-24T22:29:57.762Z,59.63
2018-02-24T22:32:26.787Z,58.94
2018-02-24T22:34:55.809Z,58.38
2018-02-24T22:37:24.767Z,58.83
2018-02-24T22:39:53.779Z,58.94
2018-02-24T22:42:22.815Z,59.45
2018-02-24T22:44:51.780Z,59.21
2018-02-24T22:47:20.764Z,59.06
2018-02-24T22:49:49.776Z,59.33
2018-02-24T22:52:18.777Z,59.20
2018-02-24T22:55:09.863Z,58.55
2018-02-24T23:05:56.510Z,59.32
2018-02-24T23:08:26.787Z,58.90
2018-02-24T23:19:18.986Z,58.77
2018-02-24T23:30:14.408Z,59.12
2018-02-24T23:32:44.385Z,58.99
2018-02-24T23:35:13.970Z,59.04
2018-02-24T23:37:43.592Z,59.02
2018-02-24T23:40:12.985Z,58.81
2018-02-24T23:42:42.492Z,59.07
2018-02-24T23:45:12.374Z,59.39
2018-02-24T23:47:42.380Z,59.42
2018-02-24T23:50:11.783Z,58.51
2018-02-24T23:52:41.335Z,58.87
2018-02-24T23:55:11.422Z,58.97
2018-02-24T23:57:41.684Z,59.20
